UKOO

Odessa International Airport

Odessa, Ukraine
TAF UKOO 221111Z 2212/2312 12003MPS 4000 BR SCT004 BKN007 SCT015CB TX02/2306Z TNM04/2212Z PROB40 TEMPO 2214/2218 0300 FZFG VV002 BECMG 2218/2219 14003G08MPS 2100 -SHSN BR BECMG 2222/2223 13006G14MPS PROB40 TEMPO 2223/2305 1000 SHRASN BKN003 BKN013CB BECMG 2305/2306 16008G15MPS 3000 -SHRA BR
Issued Valid From Valid To
Jan-22 @ 11:11 UTC
(6 hours ago)
Jan-22 @ 12:00 UTC
(5 hours ago)
Jan-23 @ 12:00 UTC
(in 19 hours)
Jan-22 @ 12:00 to Jan-22 @ 18:00
TAF UKOO 221111Z 2212/2312 12003MPS 4000 BR SCT004 BKN007 SCT015CB TX02/2306Z TNM04/2212Z
Wind Visibility Clouds Conditions
120° at 6 knots 4,007 meters
  • Scattered at 400' AGL
  • Broken at 700' AGL
  • Scattered at 1,500' AGL
  • Mist
Temporary  (Probability 40%) Jan-22 @ 14:00 to Jan-22 @ 18:00
PROB40 TEMPO 2214/2218 0300 FZFG VV002
Visibility Clouds Conditions
306 meters
  • Vertical visibility at 200' AGL
  • Freezing
  • Fog
Becoming Jan-22 @ 18:00 to Jan-22 @ 22:00
BECMG 2218/2219 14003G08MPS 2100 -SHSN BR
Wind Visibility Clouds Conditions
140° at 6 knots
 Gusting to 16 knots
2,092 meters
  • Scattered at 400' AGL
  • Broken at 700' AGL
  • Scattered at 1,500' AGL
  • Light Snow
  • Mist
Becoming Jan-22 @ 22:00 to Jan-23 @ 05:00
BECMG 2222/2223 13006G14MPS
Wind Visibility Clouds Conditions
130° at 12 knots
 Gusting to 27 knots
2,092 meters
  • Scattered at 400' AGL
  • Broken at 700' AGL
  • Scattered at 1,500' AGL
  • Light Snow
  • Mist
Temporary  (Probability 40%) Jan-22 @ 23:00 to Jan-23 @ 05:00
PROB40 TEMPO 2223/2305 1000 SHRASN BKN003 BKN013CB
Visibility Clouds Conditions
998 meters
  • Broken at 300' AGL
  • Broken at 1,300' AGL
  • Rain
  • Snow
Becoming Jan-23 @ 05:00 to Jan-23 @ 12:00
BECMG 2305/2306 16008G15MPS 3000 -SHRA BR
Wind Visibility Clouds Conditions
160° at 16 knots
 Gusting to 29 knots
2,993 meters
  • Scattered at 400' AGL
  • Broken at 700' AGL
  • Scattered at 1,500' AGL
  • Light Rain
  • Mist
TAF UKOO 221111Z 2212/2312 12003MPS 4000 BR SCT004 BKN007 SCT015CB TX02/2306Z TNM04/2212Z PROB40 TEMPO 2214/2218 0300 FZFG VV002 BECMG 2218/2219 14003G08MPS 2100 -SHSN BR BECMG 2222/2223 13006G14MPS PROB40 TEMPO 2223/2305 1000 SHRASN BKN003 BKN013CB BECMG 2305/2306 16008G15MPS 3000 -SHRA BR
Issued Jan-22 @ 11:11 UTC
(6 hours ago)
Valid From Jan-22 @ 12:00 UTC
(5 hours ago)
Valid To Jan-23 @ 12:00 UTC
(in 19 hours)
Jan-22 @ 12:00 - Jan-22 @ 18:00
Wind Visibility
120° at 6 knots 4,007 meters
Clouds
  • Scattered at 400' AGL
  • Broken at 700' AGL
  • Scattered at 1,500' AGL
Conditions
  • Mist
Probability 40% Temporary Jan-22 @ 14:00 - Jan-22 @ 18:00
Clouds
  • Vertical visibility at 200' AGL
Conditions
  • Freezing
  • Fog
Becoming Jan-22 @ 18:00 - Jan-22 @ 22:00
Wind Visibility
140° at 6 knots
 Gusting to 16 knots
2,092 meters
Clouds
  • Scattered at 400' AGL
  • Broken at 700' AGL
  • Scattered at 1,500' AGL
Conditions
  • Light Snow
  • Mist
Becoming Jan-22 @ 22:00 - Jan-23 @ 05:00
Wind Visibility
130° at 12 knots
 Gusting to 27 knots
2,092 meters
Clouds
  • Scattered at 400' AGL
  • Broken at 700' AGL
  • Scattered at 1,500' AGL
Conditions
  • Light Snow
  • Mist
Probability 40% Temporary Jan-22 @ 23:00 - Jan-23 @ 05:00
Clouds
  • Broken at 300' AGL
  • Broken at 1,300' AGL
Conditions
  • Rain
  • Snow
Becoming Jan-23 @ 05:00 - Jan-23 @ 12:00
Wind Visibility
160° at 16 knots
 Gusting to 29 knots
2,993 meters
Clouds
  • Scattered at 400' AGL
  • Broken at 700' AGL
  • Scattered at 1,500' AGL
Conditions
  • Light Rain
  • Mist